• Join FlightAware (Why Join?)
  • Login
  • US Flag 
03:01PM EDT


 

Airport Tracker/Info


-or-


 

Live Flight TrackerFlight Track Log ✈ N75AW ✈ 09-Jun-2013 ✈ KAPF - KEYW

Flight Track Log - Related Links

Times and Time Zones

All times are in EDT time to prevent confusion due to time zone crossing. See the N75AW flight status page for this flight to view local times or setup timezone preferences in your user account.

Time Position Orientation Groundspeed Altitude Reporting Facility
EDT Latitude Longitude Course Direction KTS MPH feet Rate Location/Type
10:22AM 25.9817 -81.7608 179° South 188 216 7,300  Level Miami Center
10:23AM 25.9292 -81.7678 187° South 195 224 9,200 1,920 Climbing Miami Center
10:24AM 25.8747 -81.7703 182° South 201 231 11,200 1,740 Climbing Miami Center
10:25AM 25.8225 -81.7703 180° South 196 226 12,700 720 Climbing Miami Center
10:26AM 25.7556 -81.7722 181° South 218 251 12,700  Level Miami Center
10:27AM 25.9599 -81.7737 179° South  Level Estimated
10:27AM 25.6806 -81.7714 179° South 247 284 12,700  Level Miami Center
10:28AM 25.6139 -81.7686 178° South 265 305 12,600 -60 Descending Miami Center
10:29AM 25.5406 -81.7728 183° South 270 311 12,600  Level Miami Center
10:30AM 25.4675 -81.7719 179° South 270 311 12,600 -420 Level Miami Center
10:31AM 25.3903 -81.7711 179° South 270 311 11,800 -840 Descending Miami Center
10:32AM 25.3131 -81.7703 179° South 275 316 11,000 -1,020 Descending Miami Center
10:33AM 25.2358 -81.7719 181° South 275 316 9,800 -1,260 Descending Miami Center
10:34AM 25.1544 -81.7708 179° South 281 323 8,500 -1,320 Descending Miami Center
10:35AM 25.0772 -81.7678 178° South 281 323 7,200 -1,260 Descending Miami Center
10:36AM 25.0042 -81.7672 180° South 281 323 6,000 -1,200 Descending Miami Center
10:37AM 24.9311 -81.7664 179° South 270 311 4,900 -1,200 Descending Miami Center
10:38AM 24.8622 -81.7661 180° South 264 304 3,600 -1,260 Descending Miami Center
10:39AM 24.7925 -81.7839 193° South 259 298 2,400 -1,080 Descending Miami Center
10:40AM 24.7272 -81.8064 197° South 254 292 1,500 -600 Descending Miami Center
10:41AM 24.6664 -81.8108 184° South 241 277 1,200 -240 Descending Miami Center
10:42AM 24.6058 -81.8083 178° South 230 265 1,100 -120 Descending Miami Center
10:44AM 24.5770 -81.7783 136° Southeast  Level FlightAware Approximate
10:51AM 24.5561 -81.7596 180° South  Level Estimated
10:52AM 24.5561 -81.7596 180° South  Level Estimated
10:53AM 24.5561 -81.7596 180° South  Level Estimated